Time;durP1;ratioP1;P1;durP2;ratioP2;P2;SDS_P1;SDS_P2;PMS_P1;PMS_P2;Temp;Humidity;BMP_temperature;BMP_pressure;BME280_temperature;BME280_humidity;BME280_pressure;Samples;Min_cycle;Max_cycle;Signal;HPM_P1;HPM_P2
2023/05/04 00:01:10;;;;;;;4.43;2.60;;;;;;;13.86;45.71;98566.59;8380929;28;20237;-67
2023/05/04 00:05:13;;;;;;;3.97;3.20;;;;;;;13.84;45.63;98564.06;8380486;28;20242;-67
2023/05/04 00:09:16;;;;;;;3.37;3.00;;;;;;;13.90;45.73;98578.56;8380482;28;20286;-68
2023/05/04 00:13:19;;;;;;;4.27;2.90;;;;;;;13.79;45.76;98570.41;8380198;28;20219;-68
2023/05/04 00:17:24;;;;;;;6.33;3.13;;;;;;;13.79;45.86;98573.84;8380450;28;20411;-67
2023/05/04 00:21:27;;;;;;;3.10;2.77;;;;;;;13.53;45.91;98528.25;8380128;28;20311;-67
2023/05/04 00:25:30;;;;;;;3.37;2.87;;;;;;;13.72;45.99;98556.84;8379797;28;20233;-67
2023/05/04 00:29:33;;;;;;;3.27;2.80;;;;;;;13.44;46.49;98549.47;8380270;28;20233;-67
2023/05/04 00:33:37;;;;;;;3.40;3.10;;;;;;;13.52;46.65;98563.00;8378836;28;20226;-67
2023/05/04 00:37:42;;;;;;;4.63;3.10;;;;;;;13.47;46.91;98563.19;8379732;28;20240;-68
2023/05/04 00:41:45;;;;;;;4.03;3.20;;;;;;;13.44;46.91;98557.28;8379796;28;20225;-67
2023/05/04 00:45:48;;;;;;;3.73;3.40;;;;;;;13.14;46.83;98528.31;8379435;28;20405;-67
2023/05/04 00:49:52;;;;;;;4.77;3.40;;;;;;;13.32;46.72;98542.25;8379454;28;20225;-67
2023/05/04 00:53:55;;;;;;;4.17;3.50;;;;;;;13.17;46.80;98546.38;8379160;28;20244;-67
2023/05/04 00:57:58;;;;;;;4.20;3.30;;;;;;;13.20;47.15;98547.06;8379047;28;20410;-67
2023/05/04 01:02:01;;;;;;;3.43;3.13;;;;;;;13.16;46.89;98531.69;8379066;28;20229;-67
2023/05/04 01:06:14;;;;;;;3.77;3.40;;;;;;;13.20;46.75;98551.44;8378715;28;20301;-67
2023/05/04 01:10:20;;;;;;;4.93;3.23;;;;;;;13.06;47.16;98541.66;8378531;28;20217;-67
2023/05/04 01:14:24;;;;;;;4.53;3.30;;;;;;;12.96;47.28;98541.22;8377956;28;20230;-67
2023/05/04 01:18:27;;;;;;;3.87;3.57;;;;;;;12.87;47.27;98531.22;8377896;28;20229;-67
2023/05/04 01:22:34;;;;;;;5.97;3.60;;;;;;;12.87;47.30;98531.22;8377921;28;20256;-68
2023/05/04 01:26:40;;;;;;;3.77;3.40;;;;;;;12.96;47.53;98537.78;8378117;28;20240;-67
2023/05/04 01:30:45;;;;;;;4.17;3.57;;;;;;;12.83;47.48;98527.09;8377533;28;20296;-67
2023/05/04 01:34:48;;;;;;;4.53;3.83;;;;;;;12.60;47.66;98500.38;8377304;28;20237;-67
2023/05/04 01:38:55;;;;;;;4.00;3.70;;;;;;;12.79;47.66;98523.78;8377603;28;20236;-67
2023/05/04 01:42:58;;;;;;;5.50;4.20;;;;;;;12.76;47.96;98536.94;8377342;28;20509;-67
2023/05/04 01:47:03;;;;;;;5.00;3.83;;;;;;;12.52;47.91;98539.66;8377505;28;20225;-68
2023/05/04 01:51:06;;;;;;;4.27;3.60;;;;;;;12.67;47.33;98534.72;8377704;28;20282;-68
2023/05/04 01:55:10;;;;;;;3.57;3.27;;;;;;;12.50;47.77;98528.50;8377041;28;20229;-67
2023/05/04 01:59:13;;;;;;;3.70;3.30;;;;;;;12.35;47.97;98513.56;8377713;28;20516;-67
2023/05/04 02:03:17;;;;;;;3.90;3.33;;;;;;;12.51;48.08;98530.19;8377256;28;20246;-67
2023/05/04 02:07:20;;;;;;;3.43;3.13;;;;;;;12.54;47.89;98530.97;8377254;28;20244;-67
2023/05/04 02:11:24;;;;;;;3.80;3.50;;;;;;;12.41;47.70;98536.69;8377304;28;20252;-67
2023/05/04 02:15:27;;;;;;;3.87;3.47;;;;;;;12.47;47.27;98532.97;8376891;28;20501;-67
2023/05/04 02:19:30;;;;;;;4.57;3.83;;;;;;;12.40;47.79;98536.78;8376906;28;20229;-67
2023/05/04 02:23:33;;;;;;;4.93;4.10;;;;;;;12.42;48.02;98533.19;8377155;28;20338;-67
2023/05/04 02:27:37;;;;;;;4.17;3.73;;;;;;;12.32;47.75;98524.13;8377268;28;20228;-67
2023/05/04 02:31:50;;;;;;;4.37;3.60;;;;;;;12.12;48.67;98524.94;8377199;28;20320;-67
2023/05/04 02:35:53;;;;;;;4.00;3.70;;;;;;;12.23;48.53;98519.31;8377104;28;20493;-66
2023/05/04 02:40:00;;;;;;;4.57;3.97;;;;;;;12.22;48.21;98515.88;8376531;28;20221;-67
2023/05/04 02:44:05;;;;;;;4.30;3.90;;;;;;;12.17;47.90;98522.16;8376521;28;20229;-67
2023/05/04 02:48:07;;;;;;;4.37;3.97;;;;;;;12.15;47.68;98513.56;8376987;28;20237;-67
2023/05/04 02:52:10;;;;;;;5.70;4.10;;;;;;;12.18;47.48;98526.44;8376831;28;20232;-66
2023/05/04 02:56:13;;;;;;;5.53;4.13;;;;;;;12.15;47.76;98529.16;8378478;28;20240;-67
2023/05/04 03:00:18;;;;;;;3.90;3.60;;;;;;;11.94;48.35;98526.56;8383293;28;20232;-67
2023/05/04 03:04:23;;;;;;;3.97;3.67;;;;;;;11.91;48.60;98522.31;8382519;28;20233;-68
2023/05/04 03:08:26;;;;;;;5.87;4.20;;;;;;;11.96;48.80;98532.53;8382829;28;20228;-67
2023/05/04 03:12:30;;;;;;;4.93;3.77;;;;;;;12.11;48.21;98528.47;8382598;28;20225;-67
2023/05/04 03:16:34;;;;;;;4.83;4.00;;;;;;;11.90;48.81;98525.84;8382559;28;20416;-67
2023/05/04 03:20:38;;;;;;;4.43;4.03;;;;;;;11.88;48.93;98527.63;8382278;28;20220;-67
2023/05/04 03:24:42;;;;;;;4.43;4.03;;;;;;;11.93;48.90;98524.84;8382058;28;20244;-67
2023/05/04 03:28:45;;;;;;;4.63;4.23;;;;;;;11.88;49.06;98526.75;8382164;28;20224;-67
2023/05/04 03:32:49;;;;;;;7.90;4.67;;;;;;;11.92;48.83;98520.59;8382232;28;20440;-67
2023/05/04 03:36:52;;;;;;;4.60;4.20;;;;;;;11.77;49.22;98516.00;8382083;28;20248;-68
2023/05/04 03:40:55;;;;;;;5.47;4.57;;;;;;;11.86;49.14;98521.66;8381597;28;20239;-67
2023/05/04 03:44:58;;;;;;;5.90;4.53;;;;;;;11.98;48.83;98522.09;8381817;28;20239;-67
2023/05/04 03:49:06;;;;;;;4.87;4.43;;;;;;;11.79;48.75;98490.81;8382109;28;20236;-67
2023/05/04 03:53:09;;;;;;;4.80;4.37;;;;;;;11.79;48.96;98521.97;8381558;28;20232;-67
2023/05/04 03:57:12;;;;;;;5.27;4.77;;;;;;;11.72;49.00;98519.59;8381192;28;20244;-67
2023/05/04 04:01:14;;;;;;;5.37;4.63;;;;;;;11.81;48.56;98509.75;8381026;28;20221;-67
2023/05/04 04:05:19;;;;;;;5.50;4.67;;;;;;;11.69;48.97;98508.47;8381053;28;20229;-67
2023/05/04 04:09:22;;;;;;;4.70;4.20;;;;;;;11.22;49.25;98434.28;8380554;28;20221;-68
2023/05/04 04:13:27;;;;;;;4.87;4.47;;;;;;;11.89;49.12;98510.28;8380584;28;20409;-68
2023/05/04 04:17:30;;;;;;;4.93;4.43;;;;;;;11.87;48.88;98520.72;8380523;28;20260;-68
2023/05/04 04:21:34;;;;;;;4.30;4.00;;;;;;;11.99;49.09;98522.00;8380667;28;20529;-68
2023/05/04 04:25:37;;;;;;;6.17;4.80;;;;;;;11.85;49.69;98522.53;8380417;28;20232;-67
2023/05/04 04:29:39;;;;;;;4.70;4.30;;;;;;;12.19;48.05;98523.78;8380266;28;20228;-67
2023/05/04 04:33:42;;;;;;;5.10;4.70;;;;;;;11.97;49.02;98523.81;8380234;28;20274;-68
2023/05/04 04:37:47;;;;;;;5.10;4.70;;;;;;;11.96;49.61;98521.31;8380140;28;20290;-68
2023/05/04 04:41:49;;;;;;;6.00;4.80;;;;;;;11.98;49.50;98511.72;8379719;28;20248;-67
2023/05/04 04:45:53;;;;;;;6.37;4.90;;;;;;;12.12;49.61;98523.19;8379411;28;20388;-67
2023/05/04 04:49:56;;;;;;;4.67;4.13;;;;;;;12.18;49.17;98529.88;8378560;28;20443;-67
2023/05/04 04:54:00;;;;;;;5.63;5.10;;;;;;;12.39;49.14;98528.13;8379456;28;20225;-68
2023/05/04 04:58:03;;;;;;;4.93;4.37;;;;;;;12.44;48.97;98538.31;8378920;28;20232;-68
2023/05/04 05:02:06;;;;;;;5.37;4.67;;;;;;;12.51;49.13;98543.19;8379225;28;20233;-69
2023/05/04 05:06:10;;;;;;;4.77;4.33;;;;;;;12.54;49.28;98529.22;8379072;28;20240;-69
2023/05/04 05:10:14;;;;;;;5.57;5.00;;;;;;;12.63;49.38;98526.22;8378633;28;20238;-69
2023/05/04 05:14:16;;;;;;;5.77;5.17;;;;;;;12.72;49.57;98525.00;8378806;28;20313;-68
2023/05/04 05:18:19;;;;;;;6.90;5.40;;;;;;;12.86;49.82;98527.81;8377883;28;20244;-69
2023/05/04 05:22:22;;;;;;;7.13;5.73;;;;;;;12.95;49.58;98518.75;8378235;28;20260;-68
2023/05/04 05:26:26;;;;;;;7.70;5.40;;;;;;;13.18;49.43;98535.91;8378700;28;20238;-69
2023/05/04 05:30:29;;;;;;;6.67;5.93;;;;;;;13.00;48.76;98518.53;8378188;28;20228;-69
2023/05/04 05:34:32;;;;;;;7.17;6.17;;;;;;;13.28;47.40;98539.75;8378143;28;20233;-69
2023/05/04 05:38:35;;;;;;;7.37;5.60;;;;;;;13.08;47.42;98537.25;8377985;28;20399;-69
2023/05/04 05:42:41;;;;;;;8.60;6.40;;;;;;;13.29;47.00;98540.63;8377434;28;20246;-69
2023/05/04 05:46:44;;;;;;;6.77;5.17;;;;;;;13.20;46.35;98541.03;8377894;28;20224;-69
2023/05/04 05:50:47;;;;;;;6.93;5.57;;;;;;;13.12;46.58;98536.19;8377551;28;20240;-69
2023/05/04 05:54:52;;;;;;;5.73;5.10;;;;;;;13.35;45.60;98542.13;8377523;28;20233;-69
2023/05/04 05:58:56;;;;;;;8.33;5.53;;;;;;;13.13;46.52;98545.66;8377486;28;20296;-69
2023/05/04 06:02:59;;;;;;;7.00;5.70;;;;;;;13.83;45.01;98532.91;8376819;28;20224;-69
2023/05/04 06:07:02;;;;;;;9.40;5.30;;;;;;;13.68;45.01;98506.69;8377002;28;20244;-69
2023/05/04 06:11:05;;;;;;;7.23;5.67;;;;;;;13.61;45.18;98517.47;8376728;28;20237;-69
2023/05/04 06:15:10;;;;;;;6.73;5.30;;;;;;;13.33;45.09;98526.59;8376917;28;20225;-69
2023/05/04 06:19:13;;;;;;;5.23;4.73;;;;;;;13.92;44.91;98519.44;8376628;28;20230;-69
2023/05/04 06:23:16;;;;;;;5.13;4.50;;;;;;;13.90;44.62;98523.88;8376816;28;20455;-68
2023/05/04 06:27:20;;;;;;;8.80;5.73;;;;;;;13.97;43.62;98533.06;8376547;28;20234;-69
2023/05/04 06:31:27;;;;;;;6.00;4.73;;;;;;;14.05;44.01;98519.66;8379357;28;20351;-69
2023/05/04 06:35:31;;;;;;;7.37;5.00;;;;;;;14.68;43.46;98533.88;8383416;28;20257;-69
2023/05/04 06:39:34;;;;;;;5.03;4.53;;;;;;;14.74;42.97;98525.78;8383400;28;20231;-68
2023/05/04 06:43:40;;;;;;;7.63;4.93;;;;;;;14.93;42.67;98520.44;8383420;28;20276;-68
2023/05/04 06:47:44;;;;;;;8.03;5.13;;;;;;;14.85;43.17;98539.09;8383332;28;20234;-69
2023/05/04 06:51:48;;;;;;;6.07;5.33;;;;;;;14.37;43.31;98523.25;8383700;28;20438;-69
2023/05/04 06:55:53;;;;;;;6.37;5.53;;;;;;;14.57;43.22;98526.66;8383603;28;20234;-69
2023/05/04 06:59:59;;;;;;;8.70;5.10;;;;;;;15.01;42.49;98531.28;8383822;28;20226;-69
2023/05/04 07:04:04;;;;;;;5.83;4.60;;;;;;;15.28;41.88;98523.72;8383031;28;20232;-69
2023/05/04 07:08:08;;;;;;;8.53;5.07;;;;;;;15.40;42.02;98519.59;8383024;28;20230;-69
2023/05/04 07:12:11;;;;;;;7.50;5.20;;;;;;;15.64;42.03;98525.22;8382942;28;20227;-69
2023/05/04 07:16:14;;;;;;;5.83;4.60;;;;;;;15.79;41.63;98518.34;8382937;28;20232;-68
2023/05/04 07:20:20;;;;;;;7.40;4.30;;;;;;;16.23;40.71;98523.59;8383180;28;20228;-69
2023/05/04 07:24:29;;;;;;;7.70;4.90;;;;;;;15.75;40.21;98428.88;8382392;28;20419;-69
2023/05/04 07:28:33;;;;;;;7.47;4.40;;;;;;;16.33;39.36;98525.66;8382645;28;20236;-68
2023/05/04 07:32:36;;;;;;;4.27;3.87;;;;;;;16.73;38.85;98515.44;8382587;28;20229;-68
2023/05/04 07:36:40;;;;;;;8.07;3.90;;;;;;;16.89;39.09;98510.16;8382487;28;20539;-69
2023/05/04 07:40:45;;;;;;;5.93;4.00;;;;;;;17.08;39.76;98499.41;8381505;28;20232;-68
2023/05/04 07:44:48;;;;;;;5.63;4.00;;;;;;;17.17;38.39;98501.41;8381951;28;20228;-69
2023/05/04 07:48:51;;;;;;;8.27;4.27;;;;;;;17.10;38.87;98500.97;8382428;28;20245;-69
2023/05/04 07:52:55;;;;;;;5.93;3.70;;;;;;;17.79;37.27;98504.41;8381817;28;20230;-70
2023/05/04 07:56:57;;;;;;;5.23;4.30;;;;;;;17.30;38.23;98504.94;8382054;28;20568;-69
2023/05/04 08:01:00;;;;;;;4.50;4.10;;;;;;;18.11;36.62;98508.50;8381739;28;20254;-68
2023/05/04 08:05:04;;;;;;;5.37;3.80;;;;;;;18.63;36.13;98498.88;8381283;28;20307;-68
2023/05/04 08:09:08;;;;;;;5.90;3.90;;;;;;;18.69;35.99;98501.91;8381186;28;20251;-68
2023/05/04 08:13:11;;;;;;;4.30;3.90;;;;;;;19.14;35.73;98496.22;8381049;28;20403;-68
2023/05/04 08:17:14;;;;;;;5.23;4.20;;;;;;;18.33;36.31;98505.28;8380522;28;20303;-69
2023/05/04 08:21:17;;;;;;;6.30;4.73;;;;;;;18.60;35.86;98492.09;8380907;28;20238;-68
2023/05/04 08:25:22;;;;;;;5.20;4.10;;;;;;;18.65;35.21;98494.38;8380420;28;20422;-69
2023/05/04 08:29:30;;;;;;;7.00;4.20;;;;;;;19.09;35.27;98482.56;8380242;28;20258;-68
2023/05/04 08:33:33;;;;;;;6.57;4.87;;;;;;;19.45;34.10;98488.75;8379807;28;20232;-68
2023/05/04 08:37:36;;;;;;;7.80;4.60;;;;;;;19.56;34.01;98494.06;8379486;28;20236;-68
2023/05/04 08:41:40;;;;;;;7.03;4.73;;;;;;;20.01;33.88;98490.81;8380110;28;20284;-68
2023/05/04 08:45:43;;;;;;;10.20;4.97;;;;;;;20.54;39.85;98483.28;8379909;28;20229;-67
2023/05/04 08:49:46;;;;;;;6.50;4.03;;;;;;;21.03;35.01;98491.81;8379809;28;20343;-68
2023/05/04 08:53:50;;;;;;;5.00;4.10;;;;;;;20.96;33.58;98490.59;8378286;28;20255;-68
2023/05/04 08:57:55;;;;;;;5.83;4.47;;;;;;;20.46;33.57;98489.13;8379493;28;20485;-69
2023/05/04 09:01:59;;;;;;;6.13;4.23;;;;;;;20.43;34.24;98484.13;8378827;28;20234;-69
2023/05/04 09:06:02;;;;;;;3.73;3.33;;;;;;;21.86;32.60;98487.78;8378964;28;20240;-69
2023/05/04 09:10:06;;;;;;;4.70;4.30;;;;;;;21.21;31.41;98476.31;8378707;28;20519;-70
2023/05/04 09:14:10;;;;;;;5.57;3.60;;;;;;;21.61;32.82;98467.84;8378623;28;20221;-69
2023/05/04 09:18:13;;;;;;;4.87;4.47;;;;;;;20.87;31.97;98464.06;8378655;28;20237;-69
2023/05/04 09:22:16;;;;;;;7.47;4.70;;;;;;;21.19;33.08;98439.59;8378432;28;20235;-69
2023/05/04 09:26:30;;;;;;;5.40;4.10;;;;;;;22.11;31.23;98454.94;8377498;28;20232;-70
2023/05/04 09:30:34;;;;;;;4.97;4.10;;;;;;;21.74;31.47;98457.16;8378138;28;20229;-69
2023/05/04 09:34:37;;;;;;;4.93;3.60;;;;;;;22.15;32.06;98443.16;8378203;28;20237;-70
2023/05/04 09:38:40;;;;;;;5.13;3.80;;;;;;;21.80;29.90;98431.13;8377390;28;20221;-69
2023/05/04 09:42:43;;;;;;;5.73;3.83;;;;;;;22.14;29.84;98443.28;8378519;28;20419;-69
2023/05/04 09:46:57;;;;;;;4.13;3.83;;;;;;;21.69;29.18;98449.63;8377884;28;20257;-69
2023/05/04 09:51:04;;;;;;;6.50;4.10;;;;;;;22.06;28.52;98441.28;8378144;28;20229;-68
2023/05/04 09:55:08;;;;;;;4.30;3.90;;;;;;;22.35;29.10;98435.38;8377897;28;20240;-68
2023/05/04 09:59:11;;;;;;;4.73;3.77;;;;;;;21.59;28.69;98419.72;8377834;28;20232;-68
2023/05/04 10:03:16;;;;;;;4.53;3.67;;;;;;;22.70;27.32;98424.41;8377679;28;20229;-68
2023/05/04 10:07:20;;;;;;;3.93;3.40;;;;;;;21.95;27.31;98422.88;8376849;28;20623;-69
2023/05/04 10:11:24;;;;;;;5.93;3.73;;;;;;;22.38;25.67;98416.66;8376786;28;20235;-69
2023/05/04 10:15:27;;;;;;;4.03;3.60;;;;;;;22.57;26.40;98411.44;8376320;28;20233;-70
2023/05/04 10:19:45;;;;;;;5.73;3.60;;;;;;;22.24;26.89;98408.09;8376907;28;20237;-69
2023/05/04 10:24:36;;;;;;;4.93;3.07;;;;;;;23.12;25.40;98397.88;8377050;28;20244;-70
2023/05/04 10:28:45;;;;;;;4.93;3.20;;;;;;;22.58;25.38;98394.66;8307962;28;20489;-70
2023/05/04 10:32:54;;;;;;;5.10;3.90;;;;;;;22.91;24.77;98389.19;8376429;28;20225;-70
2023/05/04 10:36:59;;;;;;;3.63;3.30;;;;;;;23.85;24.96;98373.66;8376292;28;20288;-70
2023/05/04 10:41:13;;;;;;;5.07;3.80;;;;;;;23.32;25.53;98382.03;8377025;28;20225;-71
2023/05/04 10:45:17;;;;;;;4.03;3.20;;;;;;;23.18;25.29;98364.78;8377486;28;20435;-71
2023/05/04 10:49:20;;;;;;;4.03;3.50;;;;;;;22.56;25.69;98356.16;8376944;28;20421;-70
2023/05/04 10:53:31;;;;;;;4.47;3.00;;;;;;;23.65;24.55;98348.22;8377437;28;20225;-70
2023/05/04 10:57:34;;;;;;;5.10;2.73;;;;;;;23.34;24.70;98346.59;8376427;28;20232;-70
2023/05/04 11:01:42;;;;;;;2.90;2.70;;;;;;;23.87;24.00;98273.88;8376829;28;21655;-70
2023/05/04 11:05:49;;;;;;;4.80;3.03;;;;;;;23.08;23.94;98342.81;8376738;28;20528;-69
2023/05/04 11:09:53;;;;;;;4.33;3.53;;;;;;;22.95;24.46;98322.75;8376767;28;20228;-69
2023/05/04 11:13:57;;;;;;;6.23;3.50;;;;;;;23.13;24.83;98322.94;8376694;28;20220;-70
2023/05/04 11:18:00;;;;;;;3.00;2.80;;;;;;;24.03;24.79;98315.59;8380105;28;20229;-69
2023/05/04 11:22:03;;;;;;;3.37;2.57;;;;;;;24.29;26.72;98325.50;8382997;28;20225;-70
2023/05/04 11:26:08;;;;;;;4.90;3.00;;;;;;;23.53;25.91;98318.44;8382520;28;20221;-70
2023/05/04 11:30:12;;;;;;;4.20;2.90;;;;;;;24.02;24.90;98310.44;8382414;28;20237;-71
2023/05/04 11:34:20;;;;;;;3.40;2.50;;;;;;;23.57;23.68;98311.91;8381878;28;20224;-72
2023/05/04 11:38:22;;;;;;;4.43;2.60;;;;;;;23.86;23.77;98306.59;8380055;28;20221;-71
2023/05/04 11:42:27;;;;;;;6.63;3.10;;;;;;;23.26;24.06;98308.59;8373004;28;20229;-70
2023/05/04 11:46:30;;;;;;;3.00;2.67;;;;;;;23.83;23.61;98306.03;8393436;28;20232;-70
2023/05/04 11:50:33;;;;;;;2.67;2.30;;;;;;;23.11;22.94;98298.44;8382252;28;20317;-72
2023/05/04 11:54:36;;;;;;;5.30;3.00;;;;;;;24.03;22.84;98304.16;8381602;28;20232;-71
2023/05/04 11:58:41;;;;;;;2.83;2.53;;;;;;;24.19;22.71;98291.13;8381462;28;20310;-71
2023/05/04 12:02:43;;;;;;;3.27;2.40;;;;;;;24.04;22.65;98272.25;8381583;28;20224;-71
2023/05/04 12:06:46;;;;;;;2.87;2.60;;;;;;;24.23;22.47;98295.16;8381039;28;20350;-70
2023/05/04 12:10:49;;;;;;;4.50;2.53;;;;;;;24.47;21.60;98288.50;8381248;28;20252;-71
2023/05/04 12:14:55;;;;;;;4.00;2.70;;;;;;;24.37;21.54;98285.91;8380968;28;20524;-71
2023/05/04 12:19:03;;;;;;;2.50;2.20;;;;;;;23.86;21.89;98276.69;8381139;28;20468;-71
2023/05/04 12:23:07;;;;;;;3.80;2.40;;;;;;;23.90;22.83;98272.75;8380446;28;20236;-70
2023/05/04 12:27:13;;;;;;;2.80;2.60;;;;;;;24.95;21.01;98271.47;8380171;28;20235;-70
2023/05/04 12:31:17;;;;;;;3.50;2.67;;;;;;;24.22;22.39;98274.13;8378762;28;20224;-70
2023/05/04 12:35:20;;;;;;;3.60;3.30;;;;;;;25.00;22.65;98271.00;8379187;28;20320;-70
2023/05/04 12:39:23;;;;;;;3.10;2.10;;;;;;;25.76;21.01;98257.19;8379860;28;20259;-71
2023/05/04 12:43:28;;;;;;;7.30;2.60;;;;;;;25.54;22.33;98277.91;8379685;28;20232;-71
2023/05/04 12:47:32;;;;;;;3.23;2.13;;;;;;;25.59;21.17;98260.69;8379102;28;20252;-71
2023/05/04 12:51:35;;;;;;;2.93;2.47;;;;;;;24.36;21.29;98258.59;8379234;28;20635;-71
2023/05/04 12:55:38;;;;;;;3.10;2.33;;;;;;;24.56;21.23;98247.91;8378944;28;20376;-71
2023/05/04 12:59:41;;;;;;;3.83;2.20;;;;;;;24.65;20.66;98248.84;8378997;28;20232;-71
2023/05/04 13:03:45;;;;;;;4.10;2.30;;;;;;;24.75;20.75;98244.28;8378861;28;20249;-71
2023/05/04 13:07:48;;;;;;;3.03;2.33;;;;;;;24.77;20.77;98237.06;8379488;28;20283;-70
2023/05/04 13:11:53;;;;;;;3.20;2.30;;;;;;;24.64;20.65;98226.81;8378872;28;20232;-70
2023/05/04 13:15:57;;;;;;;1.83;1.70;;;;;;;25.52;19.76;98220.75;8378512;28;20446;-71
2023/05/04 13:20:04;;;;;;;2.27;1.83;;;;;;;25.15;20.06;98229.72;8379344;28;20240;-70
2023/05/04 13:24:10;;;;;;;3.10;1.90;;;;;;;24.67;20.05;98221.22;8379251;28;20217;-70
2023/05/04 13:28:13;;;;;;;2.10;1.90;;;;;;;24.38;20.16;98205.53;8378911;28;20221;-70
2023/05/04 13:32:16;;;;;;;2.80;1.90;;;;;;;24.73;20.79;98211.81;8378421;28;20552;-70
2023/05/04 13:36:20;;;;;;;2.30;2.10;;;;;;;24.49;20.88;98193.88;8378235;28;20282;-70
2023/05/04 13:40:23;;;;;;;2.60;2.30;;;;;;;24.41;20.84;98189.34;8378269;28;20233;-69
2023/05/04 13:44:26;;;;;;;4.93;2.47;;;;;;;24.22;21.22;98174.44;8377997;28;20229;-68
2023/05/04 13:48:31;;;;;;;2.43;1.93;;;;;;;24.75;20.33;98178.09;8378206;28;20237;-71
2023/05/04 13:52:38;;;;;;;2.30;2.10;;;;;;;24.16;20.32;98175.88;8377886;28;20236;-69
2023/05/04 13:56:41;;;;;;;2.00;1.90;;;;;;;24.96;19.72;98164.53;8377928;28;20254;-69
2023/05/04 14:00:44;;;;;;;3.07;1.90;;;;;;;24.91;19.31;98156.22;8377651;28;20642;-69
2023/05/04 14:04:49;;;;;;;5.10;1.80;;;;;;;24.86;19.02;98161.13;8377226;28;20233;-69
2023/05/04 14:08:53;;;;;;;2.13;1.60;;;;;;;24.41;18.80;98154.94;8377368;28;20627;-69
2023/05/04 14:12:56;;;;;;;1.90;1.70;;;;;;;25.03;17.98;98147.00;8377094;28;20332;-69
2023/05/04 14:16:59;;;;;;;3.30;2.20;;;;;;;25.06;18.32;98149.38;8377017;28;20270;-69
2023/05/04 14:21:07;;;;;;;2.47;1.83;;;;;;;24.72;19.00;98146.63;8376963;28;20225;-69
2023/05/04 14:25:16;;;;;;;2.47;2.27;;;;;;;24.49;19.99;98143.59;8377037;28;20348;-70
2023/05/04 14:29:19;;;;;;;2.77;2.00;;;;;;;24.42;19.76;98135.41;8376708;28;20559;-69
2023/05/04 14:33:22;;;;;;;2.53;2.20;;;;;;;24.65;19.55;98125.22;8376823;28;20228;-69
2023/05/04 14:37:25;;;;;;;1.70;1.60;;;;;;;24.86;19.07;98108.16;8376690;28;20563;-69
2023/05/04 14:41:32;;;;;;;1.97;1.80;;;;;;;24.67;18.99;98090.66;8376795;28;20229;-69
2023/05/04 14:45:35;;;;;;;2.40;1.90;;;;;;;24.68;20.57;98102.91;8376748;28;20235;-69
2023/05/04 14:49:41;;;;;;;2.63;2.00;;;;;;;25.05;18.53;98107.13;8376896;28;20236;-70
2023/05/04 14:53:46;;;;;;;4.60;1.70;;;;;;;24.55;19.07;98101.47;8381765;28;20288;-69
2023/05/04 14:57:51;;;;;;;2.20;1.77;;;;;;;24.13;18.13;98088.84;8383687;28;20235;-69
2023/05/04 15:01:56;;;;;;;2.80;1.83;;;;;;;23.95;19.15;98094.16;8383821;28;20233;-69
2023/05/04 15:05:58;;;;;;;3.00;1.80;;;;;;;24.34;19.28;98095.66;8382931;28;20552;-69
2023/05/04 15:10:02;;;;;;;1.70;1.60;;;;;;;24.15;18.14;98084.22;8382802;28;20221;-69
2023/05/04 15:14:06;;;;;;;2.30;1.97;;;;;;;24.18;19.03;98083.13;8383029;28;20225;-70
2023/05/04 15:18:08;;;;;;;2.03;1.90;;;;;;;24.35;18.62;98077.00;8382473;28;20225;-69
2023/05/04 15:22:12;;;;;;;3.00;1.93;;;;;;;24.05;19.03;98067.63;8382534;28;20571;-69
2023/05/04 15:26:15;;;;;;;1.90;1.80;;;;;;;23.96;19.75;98065.88;8382511;28;20225;-69
2023/05/04 15:30:19;;;;;;;4.10;2.00;;;;;;;23.90;19.94;98063.84;8382012;28;20229;-72
2023/05/04 15:34:22;;;;;;;3.30;2.00;;;;;;;23.53;19.74;98062.94;8382048;28;20300;-70
2023/05/04 15:38:27;;;;;;;2.37;2.00;;;;;;;23.65;19.95;98015.13;8382129;28;20300;-68
2023/05/04 15:42:30;;;;;;;2.30;1.87;;;;;;;23.75;19.71;98053.72;8382270;28;20401;-69
2023/05/04 15:46:34;;;;;;;3.43;2.23;;;;;;;23.54;19.59;98050.53;8381783;28;20237;-69
2023/05/04 15:50:37;;;;;;;3.50;2.00;;;;;;;23.53;19.59;98041.78;8382009;28;21895;-70
2023/05/04 15:54:40;;;;;;;3.57;1.73;;;;;;;23.40;19.85;98043.94;8382217;28;20237;-70
2023/05/04 15:58:43;;;;;;;2.97;1.60;;;;;;;22.60;19.13;98025.03;8381599;28;20290;-70
2023/05/04 16:02:47;;;;;;;11.43;2.37;;;;;;;22.86;19.02;98040.22;8381520;28;20374;-69
2023/05/04 16:06:50;;;;;;;3.30;1.80;;;;;;;23.00;19.99;98035.31;8382384;28;20225;-70
2023/05/04 16:10:56;;;;;;;2.10;1.83;;;;;;;23.10;20.10;98037.97;8381378;28;20477;-69
2023/05/04 16:14:59;;;;;;;4.40;1.70;;;;;;;23.32;19.91;98038.53;8381035;28;20419;-69
2023/05/04 16:19:03;;;;;;;1.87;1.77;;;;;;;23.14;19.18;98039.31;8382152;28;20521;-69
2023/05/04 16:23:06;;;;;;;1.53;1.43;;;;;;;23.10;18.82;98029.22;8381292;28;20239;-69
2023/05/04 16:27:09;;;;;;;2.03;1.50;;;;;;;22.77;18.75;98015.50;8381489;28;20236;-68
2023/05/04 16:31:12;;;;;;;1.43;1.30;;;;;;;22.31;19.17;98027.72;8381449;28;20225;-68
2023/05/04 16:35:17;;;;;;;3.07;1.40;;;;;;;22.50;19.09;98030.31;8379927;28;20298;-68
2023/05/04 16:39:20;;;;;;;2.57;1.60;;;;;;;22.30;19.45;98013.69;8379362;28;20221;-69
2023/05/04 16:43:22;;;;;;;2.23;1.53;;;;;;;22.30;19.64;98026.06;8380103;28;20266;-70
2023/05/04 16:47:25;;;;;;;1.50;1.40;;;;;;;22.32;19.50;98006.47;8380656;28;20240;-70
2023/05/04 16:51:30;;;;;;;2.03;1.50;;;;;;;22.43;20.07;98016.03;8378606;28;20528;-69
2023/05/04 16:55:33;;;;;;;2.93;1.53;;;;;;;22.25;19.61;98010.63;8379730;28;20436;-71
2023/05/04 16:59:36;;;;;;;3.00;1.43;;;;;;;21.61;20.09;97949.59;8379030;28;20225;-70
2023/05/04 17:03:39;;;;;;;1.80;1.50;;;;;;;22.11;20.33;98000.50;8379222;28;20310;-70
2023/05/04 17:07:43;;;;;;;4.10;1.80;;;;;;;22.07;20.72;97997.31;8379263;28;20481;-71
2023/05/04 17:11:46;;;;;;;1.83;1.53;;;;;;;21.85;20.30;97990.50;8379050;28;20459;-69
2023/05/04 17:15:49;;;;;;;2.03;1.50;;;;;;;21.99;21.10;98005.91;8377776;28;20517;-70
2023/05/04 17:19:51;;;;;;;1.87;1.73;;;;;;;21.99;20.70;98000.66;8378607;28;20239;-71
2023/05/04 17:23:56;;;;;;;5.30;2.13;;;;;;;21.86;21.06;98011.47;8378532;28;20595;-70
2023/05/04 17:27:59;;;;;;;4.43;2.07;;;;;;;21.85;21.48;98009.78;8378080;28;20463;-70
2023/05/04 17:32:02;;;;;;;2.90;1.60;;;;;;;21.59;21.18;97992.84;8378619;28;20320;-71
2023/05/04 17:36:06;;;;;;;2.30;1.80;;;;;;;21.66;21.74;98007.97;8378308;28;20236;-71
2023/05/04 17:40:21;;;;;;;4.00;1.70;;;;;;;21.79;21.80;98026.16;8378931;28;20243;-70
2023/05/04 17:44:28;;;;;;;2.15;1.65;;;;;;;21.92;20.39;98020.63;8377833;28;20497;-71
2023/05/04 17:48:32;;;;;;;2.13;1.37;;;;;;;21.61;20.27;98020.75;8379057;28;20235;-70
2023/05/04 17:52:35;;;;;;;1.57;1.40;;;;;;;21.53;20.02;98032.91;8378807;28;20239;-71
2023/05/04 17:56:40;;;;;;;2.30;1.33;;;;;;;21.63;20.72;98041.69;8384861;28;20248;-71
2023/05/04 18:00:42;;;;;;;3.77;1.40;;;;;;;21.51;20.71;98042.75;8378220;28;20229;-71
2023/05/04 18:04:45;;;;;;;2.93;1.50;;;;;;;20.77;20.87;97973.63;8378062;28;20296;-71
2023/05/04 18:08:48;;;;;;;3.57;1.40;;;;;;;21.08;21.12;98036.78;8378313;28;20286;-70
2023/05/04 18:12:55;;;;;;;1.33;1.27;;;;;;;21.10;21.39;98042.75;8377957;28;20231;-70
2023/05/04 18:17:02;;;;;;;2.40;1.43;;;;;;;21.06;21.88;98039.53;8378455;28;20252;-70
2023/05/04 18:21:07;;;;;;;2.33;1.60;;;;;;;21.01;22.62;98047.00;8377325;28;20358;-68
2023/05/04 18:25:10;;;;;;;1.88;1.67;;;;;;;21.67;26.22;98058.88;8376091;28;20437;-67
2023/05/04 18:29:16;;;;;;;2.28;1.50;;;;;;;21.75;22.49;98047.66;8375863;28;20397;-67
2023/05/04 18:33:21;;;;;;;3.83;1.90;;;;;;;21.01;23.20;98052.25;8377325;28;20229;-69
2023/05/04 18:37:25;;;;;;;2.00;1.60;;;;;;;20.74;23.13;98044.09;8377821;28;20451;-68
2023/05/04 18:41:40;;;;;;;2.20;1.50;;;;;;;20.80;24.58;98056.72;8376543;28;20232;-69
2023/05/04 18:46:01;;;;;;;2.60;1.60;;;;;;;20.70;24.02;98056.69;8377971;28;20229;-68
2023/05/04 18:50:10;;;;;;;2.97;1.63;;;;;;;20.47;25.96;98059.41;8377951;28;20242;-69
2023/05/04 18:54:14;;;;;;;2.93;1.40;;;;;;;20.65;26.16;98059.69;8377698;28;20235;-68
2023/05/04 18:58:17;;;;;;;4.10;1.90;;;;;;;20.31;25.23;98023.03;8378712;28;20228;-68
2023/05/04 19:02:24;;;;;;;2.50;2.00;;;;;;;20.61;26.38;98053.00;8376200;28;20242;-68
2023/05/04 19:06:30;;;;;;;1.83;1.57;;;;;;;20.61;26.89;98067.97;8377713;28;20408;-67
2023/05/04 19:10:32;;;;;;;3.47;2.10;;;;;;;20.53;25.34;98065.97;8378074;28;20228;-70